Time;durP1;ratioP1;P1;durP2;ratioP2;P2;SDS_P1;SDS_P2;PMS_P1;PMS_P2;Temp;Humidity;BMP_temperature;BMP_pressure;BME280_temperature;BME280_humidity;BME280_pressure;Samples;Min_cycle;Max_cycle;Signal;HPM_P1;HPM_P2
2023/01/11 00:16:18;;;;;;;2.85;1.10;;;;;;;-10.13;47.57;101484.66;4908806;29;20044;-44
2023/01/11 00:56:59;;;;;;;3.03;1.25;;;;;;;-9.61;47.14;101520.53;4901664;29;20071;-47
2023/01/11 01:02:31;;;;;;;2.13;1.00;;;;;;;-9.58;47.62;101514.88;4907045;29;20567;-44
2023/01/11 01:04:57;;;;;;;1.27;0.80;;;;;;;-9.56;46.49;101521.75;4906099;29;20075;-45
2023/01/11 01:07:42;;;;;;;3.00;1.00;;;;;;;-9.48;47.11;101515.66;4911179;29;20076;-43
2023/01/11 01:21:26;;;;;;;5.35;1.10;;;;;;;-9.62;46.53;101486.06;4909180;29;20103;-45
2023/01/11 01:26:55;;;;;;;3.03;1.17;;;;;;;-9.54;46.33;101512.69;4904405;29;20566;-44
2023/01/11 01:40:44;;;;;;;3.35;0.95;;;;;;;-9.75;46.94;101458.25;4911206;29;20047;-42
2023/01/11 02:03:21;;;;;;;1.67;0.68;;;;;;;-9.34;45.88;101495.66;4905544;29;20088;-44
2023/01/11 02:17:14;;;;;;;2.85;1.35;;;;;;;-9.36;46.54;101484.59;4898104;29;20055;-43
2023/01/11 02:23:08;;;;;;;2.72;1.10;;;;;;;-9.34;47.15;101504.09;4917787;29;20070;-45
2023/01/11 02:45:10;;;;;;;3.45;1.33;;;;;;;-9.30;45.98;101474.97;4914167;29;20044;-43
2023/01/11 02:47:43;;;;;;;1.60;0.98;;;;;;;-9.30;45.43;101470.81;4892583;29;20368;-43
2023/01/11 03:04:45;;;;;;;2.92;1.30;;;;;;;-9.44;45.66;101421.97;4908701;29;20127;-43
2023/01/11 03:32:43;;;;;;;2.65;1.30;;;;;;;-9.35;45.87;101439.38;4912495;29;20465;-45
2023/01/11 03:35:47;;;;;;;3.15;1.30;;;;;;;-9.34;45.66;101442.78;4911792;29;20036;-45
2023/01/11 03:47:05;;;;;;;3.85;1.42;;;;;;;-9.32;46.52;101452.22;4897995;29;20076;-43
2023/01/11 03:55:44;;;;;;;2.75;1.20;;;;;;;-9.27;45.96;101432.41;4906079;29;20050;-43
2023/01/11 04:03:39;;;;;;;2.90;1.30;;;;;;;-9.33;45.27;101416.84;4895867;29;20067;-43
2023/01/11 04:06:06;;;;;;;3.88;1.77;;;;;;;-9.38;46.26;101408.97;4910136;29;20040;-44
2023/01/11 04:11:16;;;;;;;4.40;1.48;;;;;;;-9.37;46.23;101418.28;4910507;29;20075;-44
2023/01/11 04:22:33;;;;;;;1.27;0.68;;;;;;;-9.35;45.97;101419.25;4908428;29;20056;-44
2023/01/11 04:53:18;;;;;;;3.80;2.08;;;;;;;-9.40;47.24;101418.03;4911265;29;20052;-45
2023/01/11 05:07:08;;;;;;;3.95;1.67;;;;;;;-9.48;46.83;101392.31;4903860;29;20439;-48
2023/01/11 05:09:34;;;;;;;3.97;1.88;;;;;;;-9.42;46.97;101394.41;4891169;29;20068;-49
2023/01/11 05:15:03;;;;;;;1.27;0.70;;;;;;;-9.51;47.42;101376.97;4910238;29;20103;-44
2023/01/11 05:17:29;;;;;;;4.47;1.45;;;;;;;-9.50;47.12;101392.97;4906096;29;20079;-46
2023/01/11 05:19:55;;;;;;;2.85;1.40;;;;;;;-9.49;47.26;101394.72;4911894;29;20453;-46
2023/01/11 05:25:45;;;;;;;4.40;1.65;;;;;;;-9.43;48.11;101412.78;4896124;29;20044;-45
2023/01/11 05:28:11;;;;;;;7.45;1.65;;;;;;;-9.42;47.85;101382.66;4896042;29;20431;-44
2023/01/11 05:51:06;;;;;;;3.83;1.42;;;;;;;-9.32;50.12;101396.81;4911721;29;20460;-44
2023/01/11 05:53:51;;;;;;;6.50;1.83;;;;;;;-9.29;49.44;101397.03;4910049;29;20055;-47
2023/01/11 06:10:21;;;;;;;1.60;1.50;;;;;;;-9.12;49.87;101389.03;4912886;29;20131;-47
2023/01/11 06:13:25;;;;;;;3.80;1.40;;;;;;;-9.16;50.90;101392.06;4913936;29;20078;-46
2023/01/11 06:18:21;;;;;;;3.28;1.40;;;;;;;-9.09;50.31;101403.47;4907313;29;20099;-46
2023/01/11 06:31:51;;;;;;;4.88;1.50;;;;;;;-8.83;50.49;101377.59;4908935;29;20096;-47
2023/01/11 07:04:45;;;;;;;3.55;1.92;;;;;;;-8.37;50.98;101377.44;4911471;29;20393;-47
2023/01/11 07:07:10;;;;;;;4.90;1.20;;;;;;;-8.36;50.50;101375.81;4907673;29;20046;-45
2023/01/11 07:12:21;;;;;;;3.03;1.48;;;;;;;-8.33;50.61;101378.56;4905267;29;20050;-46
2023/01/11 07:40:12;;;;;;;3.42;1.50;;;;;;;-8.46;52.06;101296.13;4892599;29;20055;-47
2023/01/11 07:53:36;;;;;;;2.33;1.10;;;;;;;-7.85;52.05;101364.09;4922840;29;20048;-45
2023/01/11 08:43:52;;;;;;;2.40;1.38;;;;;;;-7.34;51.51;101316.09;4905074;29;20036;-48
2023/01/11 08:52:05;;;;;;;4.03;1.70;;;;;;;-7.44;51.71;101302.78;4905032;29;20059;-46
2023/01/11 09:22:55;;;;;;;1.38;0.93;;;;;;;-7.66;52.21;101287.91;4893201;29;20432;-47
2023/01/11 09:25:22;;;;;;;2.00;1.13;;;;;;;-7.54;51.70;101292.88;4908057;29;20072;-49
2023/01/11 09:27:49;;;;;;;3.40;1.52;;;;;;;-7.63;52.37;101282.19;4905912;29;20567;-46
2023/01/11 09:35:48;;;;;;;2.78;1.48;;;;;;;-7.74;52.55;101277.31;4907773;29;20484;-47
2023/01/11 09:44:19;;;;;;;2.83;1.13;;;;;;;-7.74;54.71;101277.31;4911861;29;20044;-47
2023/01/11 09:47:18;;;;;;;2.63;1.25;;;;;;;-7.80;54.13;101274.41;4896057;29;20045;-47
2023/01/11 10:16:07;;;;;;;2.30;1.23;;;;;;;-7.40;56.74;101244.97;4897434;29;20184;-46
2023/01/11 10:22:07;;;;;;;1.50;0.90;;;;;;;-7.84;54.74;101163.94;4914462;29;20044;-48
2023/01/11 10:24:44;;;;;;;3.28;1.50;;;;;;;-7.55;55.23;101185.06;4898158;29;20151;-46
2023/01/11 11:11:08;;;;;;;2.72;1.13;;;;;;;-7.18;53.41;101136.00;4913954;29;20056;-47
2023/01/11 11:36:50;;;;;;;5.13;1.50;;;;;;;-6.83;53.25;101139.69;4900682;29;20052;-46
2023/01/11 11:39:19;;;;;;;2.78;1.50;;;;;;;-6.77;53.05;101137.53;4896592;29;20048;-45
2023/01/11 11:50:45;;;;;;;5.25;1.48;;;;;;;-7.62;53.28;101064.28;4913252;29;20040;-47
2023/01/11 11:53:34;;;;;;;4.57;1.92;;;;;;;-7.21;53.37;101123.16;4911399;29;20052;-47
2023/01/11 11:56:26;;;;;;;2.88;1.60;;;;;;;-7.06;53.59;101124.06;4912296;29;20032;-47
2023/01/11 11:58:52;;;;;;;6.13;0.93;;;;;;;-7.23;53.24;101128.91;4913011;29;20079;-45
2023/01/11 12:01:33;;;;;;;2.72;1.27;;;;;;;-7.33;53.46;101119.94;4911466;29;20436;-46
2023/01/11 12:04:02;;;;;;;2.88;1.33;;;;;;;-7.36;53.57;101104.56;4896111;29;20075;-46
2023/01/11 12:09:30;;;;;;;8.73;1.70;;;;;;;-7.51;54.74;101103.66;4913060;29;20048;-47
2023/01/11 12:11:56;;;;;;;3.80;1.60;;;;;;;-7.44;55.63;101103.25;4895649;29;20044;-48
2023/01/11 12:14:31;;;;;;;1.45;1.00;;;;;;;-7.59;55.96;101082.16;4896181;29;20046;-47
2023/01/11 12:28:11;;;;;;;5.07;1.70;;;;;;;-7.50;62.36;101090.25;4911378;29;20096;-45
2023/01/11 12:31:01;;;;;;;4.32;1.95;;;;;;;-7.44;61.69;101105.78;4894770;29;20053;-47
2023/01/11 12:33:48;;;;;;;1.77;1.17;;;;;;;-7.46;61.77;101113.25;4895656;29;20620;-45
2023/01/11 12:36:49;;;;;;;3.55;1.30;;;;;;;-7.56;61.30;101122.72;4911063;29;20052;-48
2023/01/11 12:39:20;;;;;;;2.35;1.08;;;;;;;-7.62;61.43;101100.50;4903867;29;20052;-45
2023/01/11 12:53:55;;;;;;;3.83;1.40;;;;;;;-7.83;63.08;101107.63;4912395;29;20063;-45
2023/01/11 13:12:26;;;;;;;2.47;1.13;;;;;;;-7.75;64.02;101103.06;4909932;29;20127;-47
2023/01/11 13:21:07;;;;;;;2.53;1.10;;;;;;;-7.93;64.54;101102.81;4912188;29;20048;-47
2023/01/11 13:23:53;;;;;;;6.10;1.80;;;;;;;-7.93;64.97;101101.91;4910737;29;20052;-45
2023/01/11 13:26:20;;;;;;;3.10;1.50;;;;;;;-7.87;64.78;101095.59;4879652;29;20147;-47
2023/01/11 13:34:59;;;;;;;1.52;0.85;;;;;;;-7.98;65.08;101094.06;4911998;29;20047;-45
2023/01/11 13:43:18;;;;;;;4.60;1.25;;;;;;;-7.86;66.51;101102.41;4911881;29;20488;-45
2023/01/11 13:55:08;;;;;;;1.13;0.88;;;;;;;-8.38;64.20;101025.19;4881775;29;20189;-45
2023/01/11 13:57:58;;;;;;;4.80;1.25;;;;;;;-7.99;64.31;101101.53;4911490;29;20056;-50
2023/01/11 14:06:38;;;;;;;2.80;1.25;;;;;;;-7.93;60.73;101086.78;4908853;29;20715;-48
2023/01/11 14:15:38;;;;;;;2.60;0.98;;;;;;;-7.82;58.42;101080.75;4911626;29;20090;-47
2023/01/11 14:18:32;;;;;;;3.42;1.23;;;;;;;-8.04;58.14;101028.09;4915143;29;20083;-45
2023/01/11 14:23:50;;;;;;;3.45;1.17;;;;;;;-7.86;57.26;101056.09;4913376;29;20048;-46
2023/01/11 14:29:57;;;;;;;2.30;1.00;;;;;;;-7.81;57.11;101054.72;4914223;29;20148;-46
2023/01/11 14:33:20;;;;;;;1.33;0.68;;;;;;;-7.74;57.13;101046.72;4913535;29;20028;-46
2023/01/11 14:36:23;;;;;;;1.83;0.85;;;;;;;-7.72;57.10;101048.56;4856564;29;20045;-47
2023/01/11 14:42:07;;;;;;;5.80;1.40;;;;;;;-7.54;56.92;101070.66;4905588;29;20071;-47
2023/01/11 14:50:37;;;;;;;3.22;1.15;;;;;;;-7.59;56.42;101074.56;4914975;29;20051;-47
2023/01/11 14:55:48;;;;;;;3.75;1.65;;;;;;;-7.54;56.02;101058.91;4895200;29;20043;-47
2023/01/11 14:58:20;;;;;;;3.95;1.25;;;;;;;-7.44;56.33;101066.25;4908061;29;20456;-47
2023/01/11 15:01:04;;;;;;;1.50;0.73;;;;;;;-7.49;56.20;101057.53;4914474;29;20075;-47
2023/01/11 15:09:40;;;;;;;3.80;1.02;;;;;;;-7.52;56.14;101076.66;4913391;29;20044;-47
2023/01/11 15:18:24;;;;;;;6.10;1.00;;;;;;;-7.51;56.84;101060.72;4894313;29;20135;-44
2023/01/11 15:20:56;;;;;;;2.08;1.30;;;;;;;-7.46;57.00;101057.69;4894618;29;20052;-48
2023/01/11 15:23:23;;;;;;;3.28;1.63;;;;;;;-7.43;56.78;101054.50;4912911;29;20512;-48
2023/01/11 15:26:02;;;;;;;2.50;1.45;;;;;;;-7.43;57.12;101054.50;4914477;29;20048;-47
2023/01/11 15:28:48;;;;;;;2.65;1.10;;;;;;;-7.45;57.66;101058.56;4913940;29;20048;-45
2023/01/11 15:31:53;;;;;;;1.52;0.65;;;;;;;-7.50;57.65;101065.88;4912959;29;20047;-47
2023/01/11 15:34:48;;;;;;;2.25;1.13;;;;;;;-7.54;57.75;101066.50;4875289;29;20395;-46
2023/01/11 15:38:01;;;;;;;5.78;2.15;;;;;;;-7.48;58.41;101059.25;4903576;29;20072;-47
2023/01/11 15:40:31;;;;;;;2.95;1.02;;;;;;;-7.47;58.21;101077.81;4901377;29;20059;-45
2023/01/11 15:43:15;;;;;;;3.30;1.65;;;;;;;-7.66;59.55;101070.78;4912618;29;20044;-46
2023/01/11 15:48:56;;;;;;;1.85;1.33;;;;;;;-7.73;60.63;101078.78;4912566;29;20523;-44
2023/01/11 15:51:29;;;;;;;2.55;1.17;;;;;;;-7.75;61.29;101070.25;4913873;29;20072;-45
2023/01/11 15:54:27;;;;;;;6.22;1.63;;;;;;;-7.81;61.21;101065.69;4911122;29;20084;-45
2023/01/11 15:57:51;;;;;;;2.30;1.30;;;;;;;-7.92;61.48;101069.22;4912594;29;20461;-47
2023/01/11 16:00:58;;;;;;;3.53;1.20;;;;;;;-7.90;61.34;101079.41;4873630;29;20040;-46
2023/01/11 16:03:36;;;;;;;1.48;0.73;;;;;;;-7.88;61.59;101071.16;4905615;29;20099;-46
2023/01/11 16:06:16;;;;;;;5.72;1.90;;;;;;;-8.06;61.73;101033.84;4913793;29;20510;-48
2023/01/11 16:08:53;;;;;;;3.50;1.20;;;;;;;-7.81;61.84;101055.59;4880977;29;20040;-45
2023/01/11 16:11:28;;;;;;;4.18;1.42;;;;;;;-7.78;61.40;101058.31;4912103;29;20050;-48
2023/01/11 16:13:56;;;;;;;4.05;1.45;;;;;;;-7.80;61.34;101056.47;4913825;29;20032;-49
2023/01/11 16:16:27;;;;;;;2.57;1.27;;;;;;;-7.86;61.96;101058.63;4911936;29;20040;-45
2023/01/11 16:19:07;;;;;;;1.35;0.77;;;;;;;-7.76;61.41;101046.66;4896582;29;20731;-48
2023/01/11 16:21:40;;;;;;;6.45;1.98;;;;;;;-8.02;61.58;100987.81;4912349;29;20048;-46
2023/01/11 16:24:08;;;;;;;4.68;1.52;;;;;;;-7.58;61.62;101034.25;4911447;29;20166;-49
2023/01/11 16:26:35;;;;;;;3.63;1.45;;;;;;;-7.60;61.37;101025.72;4912915;29;20044;-47
2023/01/11 16:29:07;;;;;;;3.75;1.15;;;;;;;-7.68;62.06;101036.13;4912023;29;20059;-46
2023/01/11 16:31:51;;;;;;;3.92;2.15;;;;;;;-7.71;62.22;101029.25;4911628;29;20520;-47
2023/01/11 16:34:17;;;;;;;5.03;1.50;;;;;;;-7.77;62.22;101022.19;4913274;29;20039;-47
2023/01/11 16:36:47;;;;;;;3.50;1.13;;;;;;;-7.68;62.85;101018.44;4911379;29;20068;-46
2023/01/11 16:39:18;;;;;;;3.28;1.50;;;;;;;-7.86;62.30;100988.84;4911037;29;20508;-48
2023/01/11 16:42:04;;;;;;;1.70;1.27;;;;;;;-7.59;62.01;101032.53;4912014;29;20055;-47
2023/01/11 16:44:43;;;;;;;3.03;1.30;;;;;;;-7.58;62.12;101028.31;4896220;29;20044;-47
2023/01/11 16:47:12;;;;;;;4.97;1.38;;;;;;;-7.63;62.18;100996.88;4895834;29;20455;-51
2023/01/11 16:49:40;;;;;;;4.10;1.63;;;;;;;-7.42;61.44;101013.28;4913201;29;20044;-47
2023/01/11 16:52:27;;;;;;;2.28;1.00;;;;;;;-7.43;61.21;101011.56;4897974;29;20048;-47
2023/01/11 16:54:57;;;;;;;6.43;1.42;;;;;;;-7.56;60.38;100992.28;4892558;29;20056;-45
2023/01/11 16:57:31;;;;;;;4.05;1.00;;;;;;;-7.40;60.34;101004.16;4887749;29;20048;-48
2023/01/11 17:00:05;;;;;;;4.80;1.77;;;;;;;-7.34;60.09;100995.28;4912811;29;20044;-47
2023/01/11 17:02:36;;;;;;;4.53;1.67;;;;;;;-7.17;60.02;101002.97;4910843;29;20036;-49
2023/01/11 17:05:02;;;;;;;4.18;1.55;;;;;;;-7.15;59.43;100999.72;4911286;29;20099;-44
2023/01/11 17:07:29;;;;;;;5.63;1.90;;;;;;;-7.27;58.81;101007.47;4895278;29;20076;-46
2023/01/11 17:10:13;;;;;;;10.00;2.10;;;;;;;-7.24;58.62;100998.31;4912495;29;20535;-46
2023/01/11 17:12:42;;;;;;;3.10;1.65;;;;;;;-7.10;58.24;101010.97;4910749;29;20581;-47
2023/01/11 17:15:39;;;;;;;4.68;1.33;;;;;;;-7.15;57.78;101001.38;4912214;29;20079;-47
2023/01/11 17:18:05;;;;;;;4.40;1.38;;;;;;;-7.17;57.54;100990.31;4894692;29;20044;-47
2023/01/11 17:20:31;;;;;;;3.05;1.20;;;;;;;-7.06;57.15;100985.06;4912428;29;20039;-46
2023/01/11 17:22:57;;;;;;;1.90;0.80;;;;;;;-7.10;56.33;100989.88;4912537;29;20091;-46
2023/01/11 17:25:30;;;;;;;2.03;0.90;;;;;;;-7.12;55.71;100983.88;4895208;29;20044;-48
2023/01/11 17:28:07;;;;;;;5.15;1.30;;;;;;;-7.10;55.64;100972.19;4910399;29;20047;-45
2023/01/11 17:30:34;;;;;;;2.63;1.48;;;;;;;-7.15;55.74;100928.97;4911083;29;20055;-47
2023/01/11 17:33:00;;;;;;;3.65;1.05;;;;;;;-6.94;55.38;100947.84;4891905;29;20067;-47
2023/01/11 17:35:35;;;;;;;2.42;1.25;;;;;;;-6.99;54.89;100959.38;4910801;29;20441;-47
2023/01/11 17:38:04;;;;;;;4.03;1.63;;;;;;;-7.03;54.34;100965.03;4910730;29;20044;-48
2023/01/11 17:40:39;;;;;;;4.68;1.48;;;;;;;-7.07;53.93;100968.19;4909446;29;20044;-49
2023/01/11 17:46:01;;;;;;;1.90;1.30;;;;;;;-7.11;53.71;100975.47;4912165;29;20138;-46
2023/01/11 17:48:28;;;;;;;4.60;1.50;;;;;;;-7.11;53.65;100950.22;4894725;29;20048;-49
2023/01/11 17:50:59;;;;;;;2.50;1.40;;;;;;;-7.07;53.99;100950.50;4911936;29;20043;-47
2023/01/11 17:53:28;;;;;;;3.47;1.20;;;;;;;-6.98;53.63;100958.59;4914530;29;20052;-45
2023/01/11 17:55:56;;;;;;;2.08;1.40;;;;;;;-6.98;53.60;100950.13;4898707;29;20524;-46
2023/01/11 17:58:29;;;;;;;1.70;0.77;;;;;;;-7.04;53.35;100968.34;4914296;29;20047;-46
2023/01/11 18:01:07;;;;;;;3.38;1.17;;;;;;;-7.10;53.52;100957.88;4915787;29;20040;-47
2023/01/11 18:03:47;;;;;;;3.33;1.25;;;;;;;-7.27;53.65;100918.16;4915182;29;20107;-46
2023/01/11 18:06:25;;;;;;;2.78;2.25;;;;;;;-6.97;53.57;100957.81;4915467;29;20042;-46
2023/01/11 18:08:55;;;;;;;3.38;1.10;;;;;;;-6.98;53.39;100950.13;4896814;29;20135;-47
2023/01/11 18:11:32;;;;;;;2.00;1.00;;;;;;;-7.04;53.44;100953.19;4895307;29;20036;-47
2023/01/11 18:14:01;;;;;;;3.28;1.33;;;;;;;-7.09;53.54;100948.66;4895591;29;20109;-47
2023/01/11 18:16:27;;;;;;;0.85;0.65;;;;;;;-7.20;53.49;100929.50;4912616;29;20119;-46
2023/01/11 18:18:54;;;;;;;3.22;1.10;;;;;;;-7.03;53.57;100977.69;4915308;29;20036;-46
2023/01/11 18:21:25;;;;;;;3.25;1.08;;;;;;;-7.05;53.61;100950.56;4914252;29;20040;-46
2023/01/11 18:26:37;;;;;;;1.55;0.85;;;;;;;-6.91;53.54;100970.75;4914976;29;20051;-50
2023/01/11 18:29:03;;;;;;;3.58;1.38;;;;;;;-7.09;53.62;100933.50;4915353;29;20405;-46
2023/01/11 18:31:29;;;;;;;2.55;1.63;;;;;;;-6.93;53.61;100966.41;4915091;29;20636;-50
2023/01/11 18:33:55;;;;;;;3.70;1.27;;;;;;;-6.81;53.67;100962.06;4915265;29;20050;-47
2023/01/11 18:36:25;;;;;;;2.42;1.10;;;;;;;-6.69;53.65;100962.69;4897891;29;20048;-46
2023/01/11 18:38:50;;;;;;;4.30;1.23;;;;;;;-6.71;53.44;100961.78;4913481;29;20122;-46
2023/01/11 18:44:01;;;;;;;2.67;1.02;;;;;;;-6.81;53.73;100921.59;4912733;29;20068;-47
2023/01/11 18:46:27;;;;;;;4.10;1.42;;;;;;;-6.57;53.82;100975.16;4914869;29;20075;-45
2023/01/11 18:48:53;;;;;;;3.13;1.27;;;;;;;-6.60;53.88;100967.41;4898049;29;20032;-47
2023/01/11 18:51:32;;;;;;;2.40;1.17;;;;;;;-6.64;53.82;100981.53;4914089;29;20059;-44
2023/01/11 18:53:58;;;;;;;2.13;1.15;;;;;;;-6.83;54.03;100943.38;4913511;29;20547;-46
2023/01/11 18:56:24;;;;;;;4.88;1.35;;;;;;;-6.64;54.12;100973.94;4897516;29;20044;-49
2023/01/11 18:58:50;;;;;;;3.90;1.60;;;;;;;-6.64;53.67;100979.00;4913443;29;20040;-47
2023/01/11 19:01:16;;;;;;;4.38;1.33;;;;;;;-6.65;53.70;100973.88;4914643;29;20591;-48
2023/01/11 19:03:42;;;;;;;2.58;1.30;;;;;;;-6.70;54.20;100981.22;4912300;29;20107;-46
2023/01/11 19:06:11;;;;;;;2.80;1.20;;;;;;;-6.75;53.94;100972.47;4913322;29;20052;-46
2023/01/11 19:08:37;;;;;;;;;;;;;;;-6.69;53.98;100971.94;4898006;29;20078;-46
2023/01/11 19:11:03;;;;;;;0.77;0.60;;;;;;;-6.76;53.91;100973.28;4912834;29;19940;-44
2023/01/11 19:13:29;;;;;;;2.42;1.45;;;;;;;-6.82;54.14;100972.06;4914139;29;20063;-45
2023/01/11 19:15:55;;;;;;;4.22;1.13;;;;;;;-6.85;54.44;100992.97;4913041;29;20039;-47
2023/01/11 19:18:21;;;;;;;3.72;1.30;;;;;;;-6.87;54.63;100976.88;4914557;29;20091;-46
2023/01/11 19:20:47;;;;;;;3.15;1.33;;;;;;;-6.84;54.38;100974.50;4897643;29;20043;-48
2023/01/11 19:23:13;;;;;;;1.67;1.00;;;;;;;-6.85;54.41;100973.63;4912776;29;20044;-47
2023/01/11 19:25:40;;;;;;;1.48;0.90;;;;;;;-6.90;54.82;100971.63;4912516;29;20052;-50
2023/01/11 19:28:06;;;;;;;3.30;1.25;;;;;;;-6.83;54.83;100971.19;4912809;29;20043;-48
2023/01/11 19:30:32;;;;;;;2.55;1.33;;;;;;;-7.01;55.08;100939.84;4911055;29;20555;-48
2023/01/11 19:32:58;;;;;;;1.80;1.08;;;;;;;-6.81;55.44;100971.28;4912820;29;20091;-45
2023/01/11 19:35:24;;;;;;;5.78;1.50;;;;;;;-6.79;55.40;100964.66;4912367;29;20143;-46
2023/01/11 19:37:50;;;;;;;3.92;1.30;;;;;;;-6.70;55.24;100963.53;4912697;29;20036;-48
2023/01/11 19:40:18;;;;;;;1.13;0.60;;;;;;;-6.66;55.29;100960.38;4914238;29;20044;-47
2023/01/11 19:42:46;;;;;;;2.65;1.20;;;;;;;-6.70;55.66;100950.88;4912736;29;20040;-47
2023/01/11 19:45:12;;;;;;;4.10;1.60;;;;;;;-6.60;55.91;100950.59;4912510;29;20428;-48
2023/01/11 19:47:38;;;;;;;5.07;1.38;;;;;;;-6.54;55.78;100937.41;4912827;29;20044;-47
2023/01/11 19:50:06;;;;;;;2.25;1.60;;;;;;;-6.75;56.31;100916.00;4914019;29;20544;-45
2023/01/11 19:52:32;;;;;;;2.50;0.90;;;;;;;-6.65;56.55;100944.41;4912550;29;20064;-47
2023/01/11 19:54:58;;;;;;;3.97;1.40;;;;;;;-6.80;56.35;100942.69;4896731;29;20044;-47
2023/01/11 19:57:26;;;;;;;3.85;1.17;;;;;;;-6.90;57.34;100949.75;4913107;29;20079;-45
2023/01/11 19:59:52;;;;;;;3.45;1.23;;;;;;;-6.92;57.48;100951.34;4912317;29;20431;-47
2023/01/11 20:02:19;;;;;;;5.07;1.33;;;;;;;-6.90;57.88;100957.34;4911087;29;20102;-48
2023/01/11 20:04:45;;;;;;;2.40;1.27;;;;;;;-6.95;58.17;100946.09;4913277;29;20036;-47
2023/01/11 20:07:13;;;;;;;3.72;1.77;;;;;;;-6.92;58.33;100945.41;4896260;29;20122;-48
2023/01/11 20:09:39;;;;;;;5.20;1.70;;;;;;;-6.74;58.57;100946.41;4913601;29;20039;-46
2023/01/11 20:12:06;;;;;;;2.08;0.73;;;;;;;-6.66;58.73;100944.31;4912382;29;20865;-46
2023/01/11 20:14:33;;;;;;;2.65;1.17;;;;;;;-6.80;58.71;100946.06;4913131;29;20044;-47
2023/01/11 20:16:59;;;;;;;2.42;1.40;;;;;;;-6.87;58.93;100938.97;4911712;29;20751;-46
2023/01/11 20:19:25;;;;;;;4.50;1.70;;;;;;;-6.91;58.93;100942.13;4912365;29;20047;-45
2023/01/11 20:21:51;;;;;;;4.03;1.98;;;;;;;-6.92;58.71;100930.25;4912120;29;20058;-48
2023/01/11 20:24:17;;;;;;;2.53;1.40;;;;;;;-6.95;58.43;100945.22;4913361;29;20044;-47
2023/01/11 20:26:45;;;;;;;4.78;1.77;;;;;;;-7.09;58.19;100915.81;4912767;29;20420;-47
2023/01/11 20:29:11;;;;;;;4.22;1.45;;;;;;;-6.79;58.20;100941.88;4913347;29;20060;-47
2023/01/11 20:31:37;;;;;;;3.22;1.13;;;;;;;-6.78;57.69;100924.28;4913132;29;20083;-47
2023/01/11 20:34:08;;;;;;;4.25;1.10;;;;;;;-6.73;57.62;100919.47;4905904;29;20071;-48
2023/01/11 20:36:34;;;;;;;3.05;1.52;;;;;;;-6.74;57.34;100920.25;4907022;29;20044;-46
2023/01/11 20:39:01;;;;;;;7.82;1.52;;;;;;;-6.72;57.45;100917.03;4926505;29;20511;-45
2023/01/11 20:41:45;;;;;;;4.35;1.42;;;;;;;-6.64;57.23;100917.44;4908822;29;20063;-45
2023/01/11 20:44:23;;;;;;;3.67;1.52;;;;;;;-6.64;56.82;100913.25;4902848;29;20586;-48
2023/01/11 20:46:50;;;;;;;2.20;1.30;;;;;;;-6.65;56.96;100911.53;4907800;29;20050;-47
2023/01/11 20:49:17;;;;;;;3.22;1.25;;;;;;;-6.65;56.60;100918.25;4878243;29;20044;-46
2023/01/11 20:51:44;;;;;;;4.57;1.48;;;;;;;-6.71;56.51;100926.38;4902363;29;20059;-49
2023/01/11 20:54:10;;;;;;;6.40;2.00;;;;;;;-6.69;56.89;100917.19;4906677;29;20401;-53
2023/01/11 20:56:37;;;;;;;2.03;1.35;;;;;;;-6.57;56.89;100916.97;4907590;29;20044;-47
2023/01/11 20:59:05;;;;;;;4.78;1.27;;;;;;;-6.52;56.53;100910.50;4903731;29;20099;-46
2023/01/11 21:01:31;;;;;;;2.42;1.23;;;;;;;-6.57;56.61;100916.97;4904301;29;20040;-47
2023/01/11 21:03:59;;;;;;;2.78;1.42;;;;;;;-6.66;56.51;100922.44;4891055;29;20047;-50
2023/01/11 21:06:26;;;;;;;1.97;1.00;;;;;;;-6.87;56.43;100883.34;4907064;29;20067;-53
2023/01/11 21:08:56;;;;;;;2.33;1.23;;;;;;;-6.65;56.14;100906.47;4906726;29;20044;-48
2023/01/11 21:11:23;;;;;;;5.78;1.90;;;;;;;-6.76;56.62;100882.28;4909485;29;20044;-47
2023/01/11 21:13:54;;;;;;;5.63;2.13;;;;;;;-6.46;57.15;100921.81;4883053;29;20142;-47
2023/01/11 21:16:23;;;;;;;3.40;1.67;;;;;;;-6.43;57.24;100919.44;4906382;29;20040;-50
2023/01/11 21:18:53;;;;;;;4.20;1.48;;;;;;;-6.53;57.26;100908.75;4908340;29;20055;-49
2023/01/11 21:21:19;;;;;;;6.47;2.17;;;;;;;-6.56;57.73;100913.69;4906905;29;20068;-47
2023/01/11 21:23:46;;;;;;;2.28;0.98;;;;;;;-6.66;57.80;100912.31;4900200;29;20052;-51
2023/01/11 21:26:16;;;;;;;2.75;1.00;;;;;;;-6.89;58.12;100884.91;4905144;29;20043;-48
2023/01/11 21:28:43;;;;;;;3.30;1.58;;;;;;;-6.79;58.29;100925.06;4903398;29;20124;-49
2023/01/11 21:31:11;;;;;;;2.92;1.45;;;;;;;-6.74;58.82;100913.53;4899336;29;20048;-50
2023/01/11 21:33:37;;;;;;;3.75;1.50;;;;;;;-6.68;58.75;100905.41;4923812;29;20456;-50
2023/01/11 21:36:07;;;;;;;3.75;1.35;;;;;;;-6.75;59.24;100918.53;4908357;29;20052;-46
2023/01/11 21:38:34;;;;;;;4.15;1.73;;;;;;;-6.79;59.44;100907.38;4888917;29;20047;-47
2023/01/11 21:41:08;;;;;;;2.95;1.08;;;;;;;-6.98;59.62;100879.38;4910229;29;20048;-49
2023/01/11 21:43:34;;;;;;;3.92;1.60;;;;;;;-7.17;59.59;100846.31;4908605;29;20324;-48
2023/01/11 21:46:00;;;;;;;3.97;1.38;;;;;;;-6.76;60.34;100907.56;4897132;29;20049;-49
2023/01/11 21:48:26;;;;;;;4.53;1.30;;;;;;;-6.81;59.93;100911.50;4901768;29;20044;-46
2023/01/11 21:50:53;;;;;;;2.10;0.90;;;;;;;-6.83;60.10;100902.06;4906523;29;20699;-50
2023/01/11 21:53:20;;;;;;;5.15;1.60;;;;;;;-6.96;60.11;100875.28;4877031;29;20152;-48
2023/01/11 21:55:49;;;;;;;3.50;1.30;;;;;;;-6.76;60.12;100917.66;4905209;29;20087;-48
2023/01/11 21:58:16;;;;;;;3.63;1.45;;;;;;;-6.75;60.11;100906.75;4870042;29;20052;-50
2023/01/11 22:00:42;;;;;;;4.88;2.15;;;;;;;-6.70;59.81;100915.47;4904534;29;20044;-46
2023/01/11 22:03:09;;;;;;;4.10;1.92;;;;;;;-6.59;59.53;100901.72;4874846;29;20052;-50
2023/01/11 22:05:36;;;;;;;5.35;1.75;;;;;;;-6.50;59.73;100897.16;4874142;29;20127;-50
2023/01/11 22:08:02;;;;;;;3.95;1.92;;;;;;;-6.39;59.72;100890.16;4891238;29;20040;-49
2023/01/11 22:10:29;;;;;;;3.25;1.50;;;;;;;-6.47;59.46;100889.72;4903955;29;20048;-47
2023/01/11 22:12:55;;;;;;;5.18;1.92;;;;;;;-6.47;58.98;100896.44;4905562;29;20044;-47
2023/01/11 22:15:20;;;;;;;4.13;1.90;;;;;;;-6.48;59.08;100893.03;4899150;29;20055;-46
2023/01/11 22:17:46;;;;;;;3.67;1.70;;;;;;;-6.37;58.77;100897.78;4909356;29;20082;-47
2023/01/11 22:20:14;;;;;;;3.92;1.77;;;;;;;-6.34;58.61;100896.31;4901545;29;20054;-47
2023/01/11 22:22:40;;;;;;;2.42;1.50;;;;;;;-6.28;58.05;100891.53;4904842;29;20056;-47
2023/01/11 22:25:06;;;;;;;4.70;1.60;;;;;;;-6.23;57.76;100902.81;4897699;29;20050;-48
2023/01/11 22:27:32;;;;;;;5.78;1.80;;;;;;;-6.33;57.78;100890.44;4906553;29;20051;-47
2023/01/11 22:29:58;;;;;;;2.10;0.82;;;;;;;-6.33;57.43;100898.03;4904862;29;20043;-51
2023/01/11 22:32:23;;;;;;;4.05;1.70;;;;;;;-6.39;57.54;100884.22;4896907;29;20465;-49
2023/01/11 22:34:49;;;;;;;3.03;1.35;;;;;;;-6.35;57.21;100888.63;4899778;29;20099;-46
2023/01/11 22:37:15;;;;;;;4.10;1.55;;;;;;;-6.33;57.17;100880.31;4902350;29;20640;-46
2023/01/11 22:39:41;;;;;;;2.38;1.35;;;;;;;-6.24;57.29;100890.94;4902136;29;20110;-47
2023/01/11 22:42:07;;;;;;;3.25;1.58;;;;;;;-6.29;56.84;100888.97;4907556;29;20135;-47
2023/01/11 22:44:33;;;;;;;4.75;1.65;;;;;;;-6.29;56.78;100877.19;4893542;29;20498;-47
2023/01/11 22:46:59;;;;;;;2.80;1.60;;;;;;;-6.25;56.93;100868.94;4901643;29;20141;-48
2023/01/11 22:49:25;;;;;;;6.10;1.23;;;;;;;-6.29;56.48;100869.59;4908705;29;20044;-49
2023/01/11 22:51:51;;;;;;;3.13;1.60;;;;;;;-6.39;56.66;100863.97;4913139;29;20587;-46
2023/01/11 22:54:17;;;;;;;2.13;1.27;;;;;;;-6.32;56.63;100860.94;4897824;29;20504;-46
2023/01/11 22:56:43;;;;;;;3.10;1.35;;;;;;;-6.37;56.90;100855.66;4912511;29;20051;-47
2023/01/11 22:59:09;;;;;;;4.22;1.85;;;;;;;-6.35;56.36;100858.28;4910004;29;20037;-49
2023/01/11 23:01:39;;;;;;;4.05;1.80;;;;;;;-6.27;56.59;100851.94;4905987;29;20045;-48
2023/01/11 23:04:07;;;;;;;3.75;1.60;;;;;;;-6.14;56.30;100854.31;4896842;29;20437;-48
2023/01/11 23:06:36;;;;;;;2.90;1.55;;;;;;;-6.22;56.47;100842.91;4900326;29;20044;-48
2023/01/11 23:09:04;;;;;;;3.65;1.60;;;;;;;-6.23;56.01;100846.25;4890033;29;20047;-47
2023/01/11 23:14:19;;;;;;;4.18;1.25;;;;;;;-6.07;56.21;100839.50;4901642;29;20050;-46
2023/01/11 23:16:46;;;;;;;4.32;1.58;;;;;;;-6.07;56.19;100838.66;4905470;29;20096;-49
2023/01/11 23:19:15;;;;;;;2.53;1.23;;;;;;;-6.10;55.61;100833.44;4906435;29;20055;-48
2023/01/11 23:21:43;;;;;;;2.72;1.05;;;;;;;-6.24;55.89;100844.53;4904979;29;20067;-52